Thursday, February 22, 2018, 10:45 AM GMT
Back to Local

CYWA, Petawawa, Ont.

Location: , , Canada Lat: 45.95
Local Time: 10:45 AM GMT (10:45 GMT) Lon: -77.317
Time Zone: GMT Elev: 426 ft

Show me the last for .
Show Decoded

2018-02-22 06:00 METAR CYWA 220600Z AUTO 30003KT 9SM CLR M06/M13 A3068 RMK SLP397 =
2018-02-22 05:00 METAR CYWA 220500Z AUTO 33005KT 9SM CLR M05/M14 A3066 RMK SLP391 =
2018-02-22 04:00 METAR CYWA 220400Z AUTO 34006KT 9SM CLR M04/M14 A3064 RMK SLP384 =

Support USWX by starting your Amazon purchase here.